Time;durP1;ratioP1;P1;durP2;ratioP2;P2;SDS_P1;SDS_P2;PMS_P1;PMS_P2;Temp;Humidity;BMP_temperature;BMP_pressure;BME280_temperature;BME280_humidity;BME280_pressure;Samples;Min_cycle;Max_cycle;Signal;HPM_P1;HPM_P2
2023/10/20 00:01:23;;;;;;;59.30;32.03;;;10.30;99.90;;;;;;4226561;27;20272;-73
2023/10/20 00:03:25;;;;;;;61.87;32.00;;;10.30;99.90;;;;;;4231339;27;20204;-74
2023/10/20 00:05:27;;;;;;;58.30;31.17;;;10.30;99.90;;;;;;4218840;28;20219;-75
2023/10/20 00:07:28;;;;;;;58.67;31.47;;;10.30;99.90;;;;;;4223919;28;20196;-74
2023/10/20 00:09:30;;;;;;;63.77;32.30;;;10.30;99.90;;;;;;4231882;27;20279;-75
2023/10/20 00:11:33;;;;;;;56.30;30.83;;;10.30;99.90;;;;;;4223924;28;21284;-76
2023/10/20 00:13:35;;;;;;;60.63;32.97;;;10.30;99.90;;;;;;4223549;28;20707;-74
2023/10/20 00:15:36;;;;;;;57.10;30.57;;;10.30;99.90;;;;;;4221274;27;20200;-74
2023/10/20 00:17:43;;;;;;;56.73;30.90;;;10.30;99.90;;;;;;4224126;27;20226;-74
2023/10/20 00:19:44;;;;;;;57.47;29.93;;;10.30;99.90;;;;;;4242165;27;20220;-76
2023/10/20 00:21:46;;;;;;;56.97;30.53;;;10.30;99.90;;;;;;4218658;28;20228;-76
2023/10/20 00:23:48;;;;;;;64.83;31.83;;;10.30;99.90;;;;;;4227284;28;20242;-74
2023/10/20 00:25:51;;;;;;;61.80;30.57;;;10.20;99.90;;;;;;4228530;27;20251;-74
2023/10/20 00:27:54;;;;;;;56.50;31.47;;;10.20;99.90;;;;;;4225922;28;20200;-74
2023/10/20 00:29:56;;;;;;;58.97;31.73;;;10.20;99.90;;;;;;4228249;27;20193;-74
2023/10/20 00:31:58;;;;;;;57.67;30.03;;;10.20;99.90;;;;;;4225692;27;20250;-74
2023/10/20 00:34:01;;;;;;;55.40;29.80;;;10.20;99.90;;;;;;4224008;27;20218;-73
2023/10/20 00:36:04;;;;;;;60.13;32.07;;;10.10;99.90;;;;;;4228051;27;20203;-76
2023/10/20 00:38:06;;;;;;;59.10;31.47;;;10.10;99.90;;;;;;4228479;28;20253;-74
2023/10/20 00:40:09;;;;;;;60.73;32.63;;;10.10;99.90;;;;;;4223324;27;20211;-74
2023/10/20 00:42:10;;;;;;;65.10;33.80;;;10.10;99.90;;;;;;4222766;28;20226;-73
2023/10/20 00:44:12;;;;;;;63.47;31.93;;;10.10;99.90;;;;;;4230087;27;20212;-75
2023/10/20 00:46:14;;;;;;;61.07;30.57;;;10.10;99.90;;;;;;4225570;28;20207;-74
2023/10/20 00:48:15;;;;;;;63.73;31.83;;;10.10;99.90;;;;;;4230422;27;20233;-74
2023/10/20 00:50:19;;;;;;;59.07;31.10;;;10.10;99.90;;;;;;4220737;28;20196;-73
2023/10/20 00:52:22;;;;;;;59.93;31.03;;;10.10;99.90;;;;;;4223165;27;20237;-74
2023/10/20 00:54:24;;;;;;;61.43;30.97;;;10.10;99.90;;;;;;4221881;28;20196;-74
2023/10/20 00:56:28;;;;;;;59.60;30.80;;;10.10;99.90;;;;;;4224107;28;20607;-74
2023/10/20 00:58:31;;;;;;;60.80;31.13;;;10.10;99.90;;;;;;4229405;28;20276;-74
2023/10/20 01:00:32;;;;;;;65.70;32.73;;;10.00;99.90;;;;;;4226712;28;20268;-74
2023/10/20 01:02:36;;;;;;;59.93;32.07;;;10.10;99.90;;;;;;4219843;28;20232;-74
2023/10/20 01:04:38;;;;;;;58.23;30.90;;;10.10;99.90;;;;;;4223664;28;20207;-76
2023/10/20 01:06:43;;;;;;;54.37;29.50;;;10.10;99.90;;;;;;4221777;27;20248;-76
2023/10/20 01:08:45;;;;;;;65.10;33.47;;;10.00;99.90;;;;;;4223534;27;20207;-74
2023/10/20 01:10:46;;;;;;;65.80;33.07;;;10.00;99.90;;;;;;4223959;27;20208;-75
2023/10/20 01:12:47;;;;;;;61.83;32.30;;;10.00;99.90;;;;;;4233748;27;20234;-75
2023/10/20 01:14:49;;;;;;;65.93;33.60;;;10.00;99.90;;;;;;4231789;27;20198;-75
2023/10/20 01:16:51;;;;;;;64.47;32.00;;;10.00;99.90;;;;;;4219547;27;20663;-73
2023/10/20 01:18:52;;;;;;;64.40;32.73;;;10.00;99.90;;;;;;4227365;28;20203;-73
2023/10/20 01:20:55;;;;;;;68.37;33.07;;;10.00;99.90;;;;;;4228182;28;20274;-74
2023/10/20 01:22:59;;;;;;;69.97;33.43;;;10.00;99.90;;;;;;4219717;28;20694;-74
2023/10/20 01:25:03;;;;;;;62.57;32.53;;;10.00;99.90;;;;;;4227912;28;20199;-73
2023/10/20 01:27:05;;;;;;;62.77;31.40;;;10.00;99.90;;;;;;4228946;28;20674;-75
2023/10/20 01:29:09;;;;;;;63.93;32.33;;;10.00;99.90;;;;;;4220556;27;20211;-75
2023/10/20 01:31:10;;;;;;;65.50;32.40;;;10.00;99.90;;;;;;4221827;28;20835;-73
2023/10/20 01:33:14;;;;;;;57.57;30.90;;;10.00;99.90;;;;;;4217154;28;20203;-75
2023/10/20 01:35:16;;;;;;;65.73;32.90;;;10.00;99.90;;;;;;4228981;27;20303;-73
2023/10/20 01:37:17;;;;;;;61.50;32.40;;;10.00;99.90;;;;;;4223394;28;20223;-74
2023/10/20 01:39:19;;;;;;;69.27;33.83;;;10.00;99.90;;;;;;4225184;28;20202;-75
2023/10/20 01:41:23;;;;;;;63.73;33.20;;;10.00;99.90;;;;;;4223309;28;20202;-73
2023/10/20 01:43:25;;;;;;;72.43;33.50;;;10.00;99.90;;;;;;4229008;28;20825;-74
2023/10/20 01:45:28;;;;;;;68.23;32.27;;;10.00;99.90;;;;;;4222893;28;20789;-75
2023/10/20 01:47:30;;;;;;;77.30;32.80;;;10.00;99.90;;;;;;4221173;28;21253;-74
2023/10/20 01:49:31;;;;;;;64.97;31.37;;;10.00;99.90;;;;;;4222186;28;20215;-73
2023/10/20 01:51:34;;;;;;;68.73;32.63;;;10.00;99.90;;;;;;4226523;28;20233;-73
2023/10/20 01:53:36;;;;;;;62.60;31.13;;;10.00;99.90;;;;;;4224909;28;20207;-73
2023/10/20 01:55:40;;;;;;;71.27;33.27;;;10.00;99.90;;;;;;4222601;28;20203;-73
2023/10/20 01:57:42;;;;;;;68.90;32.73;;;10.00;99.90;;;;;;4223214;28;20250;-74
2023/10/20 01:59:44;;;;;;;64.63;32.97;;;10.00;99.90;;;;;;4230254;28;20272;-73
2023/10/20 02:01:46;;;;;;;63.93;32.47;;;10.00;99.90;;;;;;4225588;28;21136;-74
2023/10/20 02:03:49;;;;;;;71.00;33.73;;;10.00;99.90;;;;;;4231307;28;20205;-74
2023/10/20 02:05:50;;;;;;;72.43;33.40;;;10.00;99.90;;;;;;4228143;28;20199;-73
2023/10/20 02:07:52;;;;;;;66.63;31.73;;;10.00;99.90;;;;;;4224506;28;20263;-73
2023/10/20 02:09:54;;;;;;;66.00;31.47;;;10.00;99.90;;;;;;4226298;28;20615;-74
2023/10/20 02:11:58;;;;;;;74.57;34.40;;;10.00;99.90;;;;;;4227729;28;20261;-74
2023/10/20 02:14:01;;;;;;;70.93;33.83;;;10.00;99.90;;;;;;4227022;27;20716;-77
2023/10/20 02:16:03;;;;;;;77.80;34.47;;;10.00;99.90;;;;;;4222557;28;20623;-74
2023/10/20 02:18:06;;;;;;;70.10;32.87;;;10.00;99.90;;;;;;4225117;28;20224;-74
2023/10/20 02:20:09;;;;;;;71.53;32.50;;;10.00;99.90;;;;;;4229089;28;20211;-74
2023/10/20 02:22:11;;;;;;;66.93;31.93;;;10.00;99.90;;;;;;4224784;28;20230;-73
2023/10/20 02:24:13;;;;;;;69.00;31.47;;;10.00;99.90;;;;;;4226079;27;20561;-73
2023/10/20 02:26:16;;;;;;;77.83;35.03;;;10.00;99.90;;;;;;4223557;28;20593;-73
2023/10/20 02:28:18;;;;;;;74.77;33.47;;;10.00;99.90;;;;;;4228876;27;20247;-75
2023/10/20 02:30:23;;;;;;;68.80;33.77;;;10.00;99.90;;;;;;4231318;28;20191;-73
2023/10/20 02:32:25;;;;;;;64.87;31.70;;;10.00;99.90;;;;;;4228514;28;20293;-74
2023/10/20 02:34:26;;;;;;;66.57;33.00;;;10.00;99.90;;;;;;4230726;28;20264;-74
2023/10/20 02:36:28;;;;;;;66.20;32.03;;;10.10;99.90;;;;;;4228768;27;20238;-79
2023/10/20 02:38:30;;;;;;;72.23;34.30;;;10.00;99.90;;;;;;4226616;27;20211;-73
2023/10/20 02:40:33;;;;;;;69.80;34.10;;;10.00;99.90;;;;;;4225670;28;20260;-75
2023/10/20 02:42:34;;;;;;;74.63;34.57;;;10.00;99.90;;;;;;4228458;28;20228;-76
2023/10/20 02:44:36;;;;;;;73.53;33.03;;;10.00;99.90;;;;;;4227900;28;20239;-74
2023/10/20 02:46:39;;;;;;;67.43;32.30;;;10.00;99.90;;;;;;4223516;27;20254;-74
2023/10/20 02:48:41;;;;;;;71.83;33.33;;;10.00;99.90;;;;;;4230902;28;20200;-73
2023/10/20 02:50:43;;;;;;;73.00;33.93;;;10.00;99.90;;;;;;4225096;27;20241;-75
2023/10/20 02:52:45;;;;;;;77.33;35.70;;;10.10;99.90;;;;;;4224255;28;20239;-73
2023/10/20 02:54:47;;;;;;;77.63;34.90;;;10.00;99.90;;;;;;4227455;27;20229;-73
2023/10/20 02:56:49;;;;;;;72.40;35.00;;;10.10;99.90;;;;;;4226664;28;20230;-76
2023/10/20 02:58:51;;;;;;;74.27;33.67;;;10.10;99.90;;;;;;4221634;28;20227;-76
2023/10/20 03:00:54;;;;;;;73.47;33.97;;;10.10;99.90;;;;;;4229830;28;20235;-75
2023/10/20 03:02:58;;;;;;;74.67;34.80;;;10.10;99.90;;;;;;4228728;27;20239;-75
2023/10/20 03:05:00;;;;;;;77.67;34.57;;;10.10;99.90;;;;;;4223124;28;20222;-74
2023/10/20 03:07:02;;;;;;;77.67;35.73;;;10.10;99.90;;;;;;4218285;28;20212;-74
2023/10/20 03:09:04;;;;;;;73.87;34.57;;;10.10;99.90;;;;;;4224316;28;20212;-74
2023/10/20 03:11:07;;;;;;;72.40;33.90;;;10.10;99.90;;;;;;4226165;28;20215;-74
2023/10/20 03:13:13;;;;;;;66.03;31.60;;;10.10;99.90;;;;;;4226421;28;20693;-75
2023/10/20 03:15:15;;;;;;;67.40;32.33;;;10.10;99.90;;;;;;4227334;28;20290;-73
2023/10/20 03:17:17;;;;;;;64.93;31.07;;;10.10;99.90;;;;;;4228429;27;20230;-74
2023/10/20 03:19:20;;;;;;;67.10;32.70;;;10.10;99.90;;;;;;4225201;27;20227;-73
2023/10/20 03:21:23;;;;;;;72.50;33.60;;;10.10;99.90;;;;;;4226329;28;20212;-73
2023/10/20 03:23:25;;;;;;;73.13;34.00;;;10.10;99.90;;;;;;4229453;28;20984;-73
2023/10/20 03:25:27;;;;;;;72.53;33.70;;;10.10;99.90;;;;;;4231988;27;20209;-73
2023/10/20 03:27:29;;;;;;;68.50;32.67;;;10.20;99.90;;;;;;4221236;28;20245;-73
2023/10/20 03:29:30;;;;;;;73.93;34.63;;;10.10;99.90;;;;;;4226615;28;20731;-74
2023/10/20 03:31:33;;;;;;;74.40;33.40;;;10.10;99.90;;;;;;4227240;28;20288;-73
2023/10/20 03:33:35;;;;;;;77.43;35.27;;;10.10;99.90;;;;;;4227585;28;20311;-73
2023/10/20 03:35:39;;;;;;;71.93;33.27;;;10.10;99.90;;;;;;4227944;28;20683;-73
2023/10/20 03:37:41;;;;;;;74.37;34.33;;;10.10;99.90;;;;;;4226731;27;20206;-73
2023/10/20 03:39:43;;;;;;;80.63;35.10;;;10.20;99.90;;;;;;4226983;27;20691;-73
2023/10/20 03:41:45;;;;;;;84.03;37.10;;;10.20;99.90;;;;;;4224157;28;20306;-74
2023/10/20 03:43:46;;;;;;;79.20;34.23;;;10.10;99.90;;;;;;4225264;28;20287;-74
2023/10/20 03:45:49;;;;;;;74.97;34.03;;;10.10;99.90;;;;;;4223269;28;20219;-76
2023/10/20 03:47:50;;;;;;;86.23;36.73;;;10.10;99.90;;;;;;4233063;27;20227;-74
2023/10/20 03:49:52;;;;;;;77.73;33.83;;;10.10;99.90;;;;;;4226822;28;20235;-73
2023/10/20 03:51:56;;;;;;;80.53;35.40;;;10.10;99.90;;;;;;4223978;28;20777;-75
2023/10/20 03:53:57;;;;;;;76.60;32.83;;;10.10;99.90;;;;;;4217703;28;20220;-73
2023/10/20 03:56:01;;;;;;;76.63;34.50;;;10.10;99.90;;;;;;4222383;27;20721;-73
2023/10/20 03:58:03;;;;;;;74.23;32.43;;;10.10;99.90;;;;;;4223105;28;20671;-74
2023/10/20 04:00:17;;;;;;;71.77;32.10;;;10.10;99.90;;;;;;4222591;28;20255;-73
2023/10/20 04:02:19;;;;;;;77.80;34.07;;;10.10;99.90;;;;;;4227157;27;20730;-74
2023/10/20 04:04:22;;;;;;;74.67;32.87;;;10.10;99.90;;;;;;4224735;28;20222;-75
2023/10/20 04:06:24;;;;;;;72.47;32.07;;;10.10;99.90;;;;;;4223608;28;20202;-74
2023/10/20 04:08:27;;;;;;;69.90;30.30;;;10.00;99.90;;;;;;4226617;28;20210;-73
2023/10/20 04:10:29;;;;;;;73.57;32.27;;;10.10;99.90;;;;;;4224579;28;20235;-74
2023/10/20 04:12:30;;;;;;;76.57;32.53;;;10.10;99.90;;;;;;4220560;27;20236;-74
2023/10/20 04:14:32;;;;;;;77.33;32.17;;;10.00;99.90;;;;;;4228864;27;20249;-76
2023/10/20 04:16:39;;;;;;;73.03;30.43;;;10.00;99.90;;;;;;4216748;28;20215;-73
2023/10/20 04:18:41;;;;;;;73.80;31.67;;;10.00;99.90;;;;;;4221078;28;20232;-75
2023/10/20 04:20:43;;;;;;;69.87;29.10;;;10.00;99.90;;;;;;4222989;27;20230;-75
2023/10/20 04:22:49;;;;;;;66.77;29.47;;;10.00;99.90;;;;;;4231244;27;20761;-75
2023/10/20 04:24:53;;;;;;;71.53;29.77;;;10.00;99.90;;;;;;4224168;27;20202;-74
2023/10/20 04:26:56;;;;;;;69.77;30.17;;;10.00;99.90;;;;;;4228956;27;20702;-74
2023/10/20 04:29:08;;;;;;;74.07;30.10;;;10.00;99.90;;;;;;4223351;27;20226;-73
2023/10/20 04:50:15;;;;;;;61.90;26.63;;;9.90;99.90;;;;;;4227518;27;20278;-74
2023/10/20 04:54:50;;;;;;;55.33;23.60;;;9.80;99.90;;;;;;4222841;28;20208;-73
2023/10/20 04:59:22;;;;;;;59.23;23.93;;;9.80;99.90;;;;;;4221462;27;20231;-73
2023/10/20 05:01:27;;;;;;;57.80;23.50;;;9.80;99.90;;;;;;4222390;27;20214;-73
2023/10/20 05:03:34;;;;;;;54.60;23.43;;;9.80;99.90;;;;;;4228623;27;20766;-75
2023/10/20 05:05:40;;;;;;;46.70;22.00;;;9.80;99.90;;;;;;4230554;27;20195;-75
2023/10/20 05:07:47;;;;;;;50.17;21.53;;;9.70;99.90;;;;;;4227531;28;20296;-73
2023/10/20 05:09:54;;;;;;;52.93;21.53;;;9.70;99.90;;;;;;4226969;27;20756;-75
2023/10/20 05:11:57;;;;;;;51.90;20.57;;;9.70;99.90;;;;;;4232532;27;20230;-73
2023/10/20 05:13:59;;;;;;;51.30;21.47;;;9.70;99.90;;;;;;4225611;28;20210;-75
2023/10/20 05:16:00;;;;;;;47.03;20.10;;;9.40;99.90;;;;;;4224048;28;20197;-74
2023/10/20 05:18:02;;;;;;;49.30;21.00;;;9.70;99.90;;;;;;4224331;28;20792;-74
2023/10/20 05:20:05;;;;;;;49.00;20.57;;;9.70;99.90;;;;;;4220756;27;20228;-74
2023/10/20 05:22:08;;;;;;;52.13;21.83;;;9.60;99.90;;;;;;4222970;28;20235;-74
2023/10/20 05:24:10;;;;;;;50.10;20.90;;;9.60;99.90;;;;;;4219650;28;20296;-73
2023/10/20 05:26:13;;;;;;;52.87;21.87;;;9.60;99.90;;;;;;4226271;28;20280;-72
2023/10/20 05:28:16;;;;;;;53.73;21.63;;;9.60;99.90;;;;;;4222180;28;20621;-74
2023/10/20 05:30:18;;;;;;;47.70;20.63;;;9.60;99.90;;;;;;4226023;28;20216;-73
2023/10/20 05:32:20;;;;;;;45.63;19.50;;;9.50;99.90;;;;;;4223167;27;20238;-73
2023/10/20 05:34:22;;;;;;;52.47;20.57;;;9.50;99.90;;;;;;4219257;28;20260;-73
2023/10/20 05:36:24;;;;;;;50.40;21.23;;;9.50;99.90;;;;;;4219429;28;20313;-73
2023/10/20 05:38:26;;;;;;;44.20;18.90;;;9.50;99.90;;;;;;4223306;28;20210;-73
2023/10/20 05:40:28;;;;;;;55.57;22.17;;;9.50;99.90;;;;;;4220683;28;20211;-74
2023/10/20 05:42:31;;;;;;;53.60;21.97;;;9.50;99.90;;;;;;4221494;28;20230;-73
2023/10/20 05:44:36;;;;;;;47.37;20.13;;;9.40;99.90;;;;;;4227864;28;20617;-72
2023/10/20 05:46:40;;;;;;;50.27;20.93;;;9.40;99.90;;;;;;4220782;28;20258;-72
2023/10/20 05:48:42;;;;;;;44.90;20.57;;;9.40;99.90;;;;;;4221334;28;20218;-72
2023/10/20 05:50:44;;;;;;;47.87;20.47;;;9.40;99.90;;;;;;4227077;28;20611;-73
2023/10/20 05:52:46;;;;;;;46.33;20.67;;;9.40;99.90;;;;;;4223207;28;20586;-74
2023/10/20 05:54:49;;;;;;;51.87;21.40;;;9.40;99.90;;;;;;4225246;28;20202;-74
2023/10/20 05:56:51;;;;;;;47.30;20.70;;;9.40;99.90;;;;;;4224446;28;20244;-72
2023/10/20 05:58:53;;;;;;;40.30;19.00;;;9.30;99.90;;;;;;4225946;28;20226;-73
2023/10/20 06:00:56;;;;;;;54.83;22.57;;;9.30;99.90;;;;;;4228021;28;20818;-73
2023/10/20 06:02:58;;;;;;;53.93;21.20;;;9.30;99.90;;;;;;4227397;28;20299;-76
2023/10/20 06:05:02;;;;;;;49.50;21.63;;;9.30;99.90;;;;;;4221361;28;20580;-74
2023/10/20 06:07:05;;;;;;;53.80;22.00;;;9.30;99.90;;;;;;4219035;28;20202;-74
2023/10/20 06:09:09;;;;;;;53.90;22.47;;;9.30;99.90;;;;;;4219569;28;20780;-73
2023/10/20 06:11:11;;;;;;;45.57;20.50;;;9.30;99.90;;;;;;4228355;28;20196;-73
2023/10/20 06:13:13;;;;;;;47.30;20.27;;;9.30;99.90;;;;;;4225143;28;20580;-73
2023/10/20 06:15:15;;;;;;;54.73;22.07;;;9.20;99.90;;;;;;4229155;27;20210;-73
2023/10/20 06:17:20;;;;;;;48.33;21.27;;;9.30;99.90;;;;;;4228232;28;20624;-72
2023/10/20 06:19:22;;;;;;;49.90;20.50;;;9.30;99.90;;;;;;4222479;28;20261;-73
2023/10/20 06:21:24;;;;;;;49.77;20.83;;;9.30;99.90;;;;;;4225464;28;20227;-72
2023/10/20 06:23:26;;;;;;;54.30;22.30;;;9.30;99.90;;;;;;4221419;28;20214;-73
2023/10/20 06:25:27;;;;;;;51.67;21.63;;;9.30;99.90;;;;;;4222431;28;20222;-73
2023/10/20 06:27:28;;;;;;;48.37;19.50;;;9.30;99.90;;;;;;4219240;28;20603;-73
2023/10/20 06:29:42;;;;;;;57.70;22.77;;;9.30;99.90;;;;;;4221121;28;20244;-75
2023/10/20 06:31:47;;;;;;;51.83;21.80;;;9.20;99.90;;;;;;4220500;28;20732;-74
2023/10/20 06:33:57;;;;;;;47.97;20.33;;;9.20;99.90;;;;;;4225764;28;20258;-77
2023/10/20 06:36:05;;;;;;;50.90;22.40;;;9.30;99.90;;;;;;4225863;28;20678;-74
2023/10/20 06:38:13;;;;;;;47.30;20.73;;;9.20;99.90;;;;;;4226512;28;20625;-73
2023/10/20 06:40:18;;;;;;;50.93;21.43;;;9.20;99.90;;;;;;4223866;28;20237;-72
2023/10/20 06:42:19;;;;;;;52.77;23.07;;;9.20;99.90;;;;;;4227811;28;20642;-73
2023/10/20 06:44:21;;;;;;;49.83;21.93;;;9.20;99.90;;;;;;4226976;28;20237;-76
2023/10/20 06:46:23;;;;;;;47.83;21.67;;;9.30;99.90;;;;;;4231269;27;20205;-76
2023/10/20 06:48:26;;;;;;;50.43;21.80;;;9.20;99.90;;;;;;4227845;27;20209;-72
2023/10/20 06:50:31;;;;;;;50.10;22.03;;;9.20;99.90;;;;;;4229302;28;20206;-72
2023/10/20 06:52:35;;;;;;;47.00;21.70;;;9.30;99.90;;;;;;4226693;27;20228;-74
2023/10/20 06:54:37;;;;;;;47.03;22.27;;;9.30;99.90;;;;;;4229516;27;20199;-72
2023/10/20 06:56:39;;;;;;;51.97;22.47;;;9.30;99.90;;;;;;4232615;27;20203;-74
2023/10/20 06:58:41;;;;;;;47.40;21.40;;;9.30;99.90;;;;;;4227091;28;20211;-72
2023/10/20 07:00:44;;;;;;;48.03;21.93;;;9.20;99.90;;;;;;4229597;27;20602;-73
2023/10/20 07:02:46;;;;;;;48.40;21.43;;;9.30;99.90;;;;;;4228847;28;20657;-76
2023/10/20 07:04:49;;;;;;;48.33;21.33;;;9.30;99.90;;;;;;4229965;27;20232;-73
2023/10/20 07:06:52;;;;;;;53.40;21.97;;;9.30;99.90;;;;;;4228495;27;20292;-73
2023/10/20 07:08:53;;;;;;;44.83;20.17;;;9.30;99.90;;;;;;4232571;27;20207;-73
2023/10/20 07:10:55;;;;;;;48.97;21.33;;;9.30;99.90;;;;;;4229530;27;20198;-73
2023/10/20 07:12:57;;;;;;;46.70;21.40;;;9.30;99.90;;;;;;4229571;27;20213;-73
2023/10/20 07:14:59;;;;;;;42.97;19.37;;;9.30;99.90;;;;;;4219392;28;20259;-74
2023/10/20 07:17:03;;;;;;;44.63;21.40;;;9.30;99.90;;;;;;4229670;28;20242;-73
2023/10/20 07:19:06;;;;;;;39.27;19.70;;;9.30;99.90;;;;;;4227934;28;20224;-73
2023/10/20 07:21:07;;;;;;;42.30;19.83;;;9.30;99.90;;;;;;4231768;27;20211;-73
2023/10/20 07:23:10;;;;;;;45.00;21.27;;;9.30;99.90;;;;;;4227842;28;20323;-73
2023/10/20 07:25:13;;;;;;;41.23;20.30;;;9.30;99.90;;;;;;4228979;28;20232;-75
2023/10/20 07:27:16;;;;;;;37.87;18.83;;;9.30;99.90;;;;;;4223115;28;20215;-73
2023/10/20 07:29:18;;;;;;;41.63;20.43;;;9.30;99.90;;;;;;4224934;28;20833;-73
2023/10/20 07:31:21;;;;;;;38.57;19.87;;;9.30;99.90;;;;;;4225506;28;20854;-73
2023/10/20 07:33:23;;;;;;;42.60;19.60;;;9.30;99.90;;;;;;4225004;28;20199;-73
2023/10/20 07:35:25;;;;;;;40.20;19.93;;;9.30;99.90;;;;;;4227982;27;20798;-75
2023/10/20 07:37:27;;;;;;;43.43;20.93;;;9.30;99.90;;;;;;4226016;28;20205;-73
2023/10/20 07:39:30;;;;;;;41.57;20.70;;;9.30;99.90;;;;;;4231731;27;20290;-75
2023/10/20 07:41:31;;;;;;;38.30;19.37;;;9.30;99.90;;;;;;4228641;27;20219;-76
2023/10/20 07:43:33;;;;;;;38.00;19.63;;;9.30;99.90;;;;;;4227823;27;20211;-73
2023/10/20 07:45:40;;;;;;;38.73;19.67;;;9.40;99.90;;;;;;4223424;28;20253;-73
2023/10/20 07:47:42;;;;;;;38.63;18.93;;;9.30;99.90;;;;;;4228198;28;20572;-74
2023/10/20 07:49:45;;;;;;;39.97;19.97;;;9.30;99.90;;;;;;4225503;28;20199;-73
2023/10/20 07:51:47;;;;;;;37.93;19.20;;;9.30;99.90;;;;;;4228979;27;20218;-75
2023/10/20 07:53:49;;;;;;;37.63;19.37;;;9.30;99.90;;;;;;4228377;27;20220;-77
2023/10/20 07:55:54;;;;;;;41.03;19.03;;;9.30;99.90;;;;;;4230245;27;20211;-75
2023/10/20 07:57:56;;;;;;;38.03;18.43;;;9.30;99.90;;;;;;4220802;27;20791;-75
2023/10/20 07:59:58;;;;;;;40.73;19.43;;;9.30;99.90;;;;;;4228606;27;20284;-73
2023/10/20 08:01:59;;;;;;;36.03;18.97;;;9.40;99.90;;;;;;4225812;27;20239;-74
2023/10/20 08:04:02;;;;;;;40.67;19.93;;;9.40;99.90;;;;;;4232110;27;20716;-73
2023/10/20 08:06:03;;;;;;;37.73;18.87;;;9.40;99.90;;;;;;4223045;28;20208;-73
2023/10/20 08:08:06;;;;;;;40.20;20.03;;;9.40;99.90;;;;;;4225638;28;20295;-73
2023/10/20 08:10:08;;;;;;;35.93;18.00;;;9.40;99.90;;;;;;4223618;28;20202;-73
2023/10/20 08:12:12;;;;;;;36.60;19.57;;;9.40;99.90;;;;;;4234348;27;20556;-73
2023/10/20 08:14:13;;;;;;;34.83;18.40;;;9.40;99.90;;;;;;4228696;28;20209;-73
2023/10/20 08:16:15;;;;;;;36.20;18.90;;;9.40;99.90;;;;;;4229513;27;20198;-75
2023/10/20 08:18:17;;;;;;;32.70;18.73;;;9.40;99.90;;;;;;4229867;27;20206;-73
2023/10/20 08:20:19;;;;;;;37.97;18.80;;;9.50;99.90;;;;;;4221730;28;20223;-73
2023/10/20 08:22:21;;;;;;;34.67;18.43;;;9.50;99.90;;;;;;4227223;27;20228;-74
2023/10/20 08:24:22;;;;;;;38.20;18.67;;;9.50;99.90;;;;;;4228789;28;20206;-74
2023/10/20 08:26:25;;;;;;;32.27;17.70;;;9.50;99.90;;;;;;4227005;28;20215;-74
2023/10/20 08:28:29;;;;;;;35.53;18.20;;;9.50;99.90;;;;;;4220433;28;20991;-74
2023/10/20 08:30:31;;;;;;;33.80;18.10;;;9.50;99.90;;;;;;4221030;28;20202;-74
2023/10/20 08:32:33;;;;;;;35.97;18.90;;;9.60;99.90;;;;;;4223505;28;20275;-74
2023/10/20 08:34:36;;;;;;;34.77;18.50;;;9.60;99.90;;;;;;4227704;27;20553;-74
2023/10/20 08:36:38;;;;;;;32.93;17.73;;;9.60;99.90;;;;;;4223951;27;20215;-74
2023/10/20 08:38:41;;;;;;;32.73;17.03;;;9.70;99.90;;;;;;4224992;28;20202;-74
2023/10/20 08:40:43;;;;;;;35.70;18.37;;;9.60;99.90;;;;;;4228074;27;20701;-73
2023/10/20 08:42:45;;;;;;;33.03;17.67;;;9.60;99.90;;;;;;4227116;28;20252;-73
2023/10/20 08:44:49;;;;;;;34.10;17.70;;;9.70;99.90;;;;;;4232006;27;20321;-74
2023/10/20 08:46:53;;;;;;;34.40;17.53;;;9.70;99.90;;;;;;4225210;28;20236;-74
2023/10/20 08:48:56;;;;;;;33.83;16.70;;;9.70;99.90;;;;;;4225396;27;20203;-74
2023/10/20 08:50:59;;;;;;;30.53;16.90;;;9.70;99.90;;;;;;4227073;27;20248;-73
2023/10/20 08:53:04;;;;;;;34.37;18.33;;;9.70;99.90;;;;;;4228049;27;20277;-74
2023/10/20 08:55:07;;;;;;;34.33;18.13;;;9.80;99.90;;;;;;4228376;28;20273;-73
2023/10/20 08:57:09;;;;;;;36.00;17.83;;;9.80;99.90;;;;;;4229583;27;20218;-74
2023/10/20 08:59:11;;;;;;;36.83;18.73;;;9.80;99.90;;;;;;4230946;27;20566;-74
2023/10/20 09:01:15;;;;;;;37.57;18.70;;;9.80;99.90;;;;;;4225791;27;20238;-74
2023/10/20 09:03:17;;;;;;;37.60;18.63;;;9.80;99.90;;;;;;4223003;27;20214;-74
2023/10/20 09:05:23;;;;;;;36.97;18.33;;;9.80;99.90;;;;;;4229439;27;20260;-74
2023/10/20 09:07:25;;;;;;;33.47;18.23;;;9.80;99.90;;;;;;4227900;28;20572;-75
2023/10/20 09:09:27;;;;;;;35.13;18.43;;;9.80;99.90;;;;;;4227767;28;20223;-74
2023/10/20 09:11:31;;;;;;;36.97;19.50;;;9.80;99.90;;;;;;4223272;27;20234;-73
2023/10/20 09:13:34;;;;;;;37.13;18.73;;;9.80;99.90;;;;;;4225978;28;20501;-74
2023/10/20 09:15:37;;;;;;;37.57;18.90;;;9.80;99.90;;;;;;4225511;27;20199;-74
2023/10/20 09:17:40;;;;;;;41.23;19.77;;;9.80;99.90;;;;;;4220941;28;20218;-76
2023/10/20 09:19:45;;;;;;;34.33;18.43;;;9.80;99.90;;;;;;4226575;27;20238;-74
2023/10/20 09:21:47;;;;;;;39.33;19.70;;;9.80;99.90;;;;;;4223274;28;20232;-73
2023/10/20 09:23:56;;;;;;;37.37;18.97;;;9.90;99.90;;;;;;4219775;27;20211;-74
2023/10/20 09:25:58;;;;;;;37.80;20.23;;;9.90;99.90;;;;;;4230255;27;20300;-74
2023/10/20 09:28:00;;;;;;;34.50;18.57;;;9.80;99.90;;;;;;4218593;28;20258;-74
2023/10/20 09:30:02;;;;;;;37.53;18.90;;;9.90;99.90;;;;;;4224950;28;20244;-74
2023/10/20 09:32:05;;;;;;;37.87;19.83;;;9.90;99.90;;;;;;4225204;27;20281;-74
2023/10/20 09:34:11;;;;;;;43.40;21.57;;;9.90;99.90;;;;;;4224798;27;20202;-74
2023/10/20 09:36:14;;;;;;;39.33;19.97;;;9.80;99.90;;;;;;4225270;28;20217;-74
2023/10/20 09:38:20;;;;;;;41.20;19.33;;;9.80;99.90;;;;;;4226625;28;20275;-75
2023/10/20 09:40:23;;;;;;;39.63;19.70;;;9.80;99.90;;;;;;4222388;27;20253;-75
2023/10/20 09:42:26;;;;;;;39.40;19.47;;;9.80;99.90;;;;;;4220325;28;20716;-74
2023/10/20 09:44:38;;;;;;;41.53;20.60;;;9.80;99.90;;;;;;4223643;27;20204;-74
2023/10/20 09:46:54;;;;;;;38.70;20.33;;;9.80;99.90;;;;;;4230261;28;20201;-80
2023/10/20 09:49:00;;;;;;;39.60;20.03;;;9.80;99.90;;;;;;4227388;28;20259;-76
2023/10/20 09:51:03;;;;;;;38.23;20.03;;;9.80;99.90;;;;;;4223350;28;20203;-76
2023/10/20 09:53:05;;;;;;;42.97;20.63;;;9.80;99.90;;;;;;4219949;28;20226;-74
2023/10/20 09:55:09;;;;;;;41.47;20.70;;;9.80;99.90;;;;;;4223863;28;20203;-72
2023/10/20 09:57:13;;;;;;;41.77;20.73;;;9.80;99.90;;;;;;4225307;28;20210;-73
2023/10/20 09:59:20;;;;;;;38.17;20.20;;;9.80;99.90;;;;;;4225388;28;20204;-74
2023/10/20 10:01:22;;;;;;;40.90;19.70;;;9.80;99.90;;;;;;4215479;28;20776;-73
2023/10/20 10:03:37;;;;;;;42.90;20.63;;;9.80;99.90;;;;;;4225627;28;20207;-73
2023/10/20 10:05:42;;;;;;;40.97;20.30;;;9.80;99.90;;;;;;4223075;28;20585;-73
2023/10/20 10:07:46;;;;;;;41.57;21.03;;;9.80;99.90;;;;;;4226815;28;20207;-74
2023/10/20 10:09:50;;;;;;;38.60;19.70;;;9.80;99.90;;;;;;4227049;28;20211;-73
2023/10/20 10:11:54;;;;;;;41.90;20.97;;;9.80;99.90;;;;;;4226315;28;20223;-72
2023/10/20 10:14:01;;;;;;;37.57;19.40;;;9.70;99.90;;;;;;4224988;28;20199;-74
2023/10/20 10:16:13;;;;;;;40.50;20.10;;;9.70;99.90;;;;;;4223699;28;20201;-73
2023/10/20 10:18:18;;;;;;;45.07;21.17;;;9.70;99.90;;;;;;4221308;28;21093;-72
2023/10/20 10:20:24;;;;;;;42.40;20.23;;;9.70;99.90;;;;;;4229711;27;20227;-72
2023/10/20 10:22:27;;;;;;;40.13;20.53;;;9.70;99.90;;;;;;4226126;28;20635;-72
2023/10/20 10:24:34;;;;;;;40.90;19.40;;;9.70;99.90;;;;;;4224930;27;20238;-72
2023/10/20 10:26:44;;;;;;;41.93;19.77;;;9.70;99.90;;;;;;4229807;27;20228;-72
2023/10/20 10:28:50;;;;;;;37.27;19.33;;;9.70;99.90;;;;;;4225460;27;20222;-72
2023/10/20 10:30:52;;;;;;;40.87;18.30;;;9.70;99.90;;;;;;4227859;28;20242;-72
2023/10/20 10:32:54;;;;;;;38.23;18.17;;;9.70;99.90;;;;;;4223726;28;20228;-72
2023/10/20 10:34:56;;;;;;;39.00;17.83;;;9.60;99.90;;;;;;4227763;28;20214;-72
2023/10/20 10:36:58;;;;;;;34.47;16.67;;;9.60;99.90;;;;;;4230313;27;20204;-73
2023/10/20 10:38:59;;;;;;;38.50;18.37;;;9.70;99.90;;;;;;4228375;27;20260;-72
2023/10/20 10:41:03;;;;;;;38.13;18.07;;;9.60;99.90;;;;;;4224556;27;20284;-73
2023/10/20 10:43:05;;;;;;;35.87;17.33;;;9.60;99.90;;;;;;4227544;27;20309;-73
2023/10/20 10:45:21;;;;;;;38.87;18.27;;;9.60;99.90;;;;;;4230284;28;20204;-71
2023/10/20 10:47:23;;;;;;;34.00;16.70;;;9.70;99.90;;;;;;4227366;28;20204;-73
2023/10/20 10:49:26;;;;;;;36.33;16.87;;;9.60;99.90;;;;;;4227305;27;20294;-72
2023/10/20 10:51:27;;;;;;;33.57;16.53;;;9.60;99.90;;;;;;4227921;27;20206;-73
2023/10/20 10:53:31;;;;;;;35.90;16.53;;;9.60;99.90;;;;;;4226908;28;20212;-73